Impacts METAR Board
IDs:

KBTR - Baton Rouge/Ryan Fld, LA, US

Updated at: 1300 UTC 21 May 2018
Potential Impact None Slight Moderate High
Time 21/01Z 21/02Z 21/03Z 21/04Z 21/05Z 21/06Z 21/07Z 21/08Z 21/09Z 21/10Z 21/11Z 21/12Z 21/13Z
Temp83 79 78 76 75 74 72 71 70 70 69 70 75
Dewpt64 67 68 69 70 69 69 68 68 67 67 68 70
Altim29.99 30.01 30.04 30.04 30.03 30.01 29.99 29.98 29.98 29.99 30.00 30.03 30.04
VIS10 10 10 10 10 10 9 8 7 7 5 6 6
CIG-- -- -- -- -- -- -- -- -- -- -- -- --
CoverCLRFEWCLRCLRCLRCLRCLRCLRCLRCLRCLRFEWCLR
FltCatVFRVFRVFRVFRVFRVFRVFRVFRVFRVFRMVFRVFRVFR
WX--------------------BRBRHZ
WDir160230060000300400000
WSpd8 6 0 3 0 0 0 3 4 0 0 0 0
WGst-- -- -- -- -- -- -- -- -- -- -- -- --
Raw hourly METARs
KBTR 210053Z 16008KT 10SM CLR 28/18 A2999 RMK AO2 SLP154 T02830178
KBTR 210153Z 23006KT 10SM FEW065 26/19 A3001 RMK AO2 SLP162 T02610194
KBTR 210253Z 00000KT 10SM CLR 26/20 A3004 RMK AO2 SLP169 T02560200 53023
KBTR 210353Z 06003KT 10SM CLR 24/21 A3004 RMK AO2 SLP170 T02440206
KBTR 210453Z AUTO 00000KT 10SM CLR 24/21 A3003 RMK AO2 SLP169 T02390211
KBTR 210553Z AUTO 00000KT 10SM CLR 23/21 A3001 RMK AO2 SLP160 T02330206 10294 20228 403330211 58009
KBTR 210653Z AUTO 00000KT 9SM CLR 22/21 A2999 RMK AO2 SLP154 T02220206
KBTR 210753Z AUTO 30003KT 8SM CLR 22/20 A2998 RMK AO2 SLP149 T02170200
KBTR 210853Z AUTO 04004KT 7SM CLR 21/20 A2998 RMK AO2 SLP151 T02110200 55008
KBTR 210953Z AUTO 00000KT 7SM CLR 21/19 A2999 RMK AO2 SLP154 T02110194
KBTR 211053Z 00000KT 5SM BR CLR 21/19 A3000 RMK AO2 SLP159 T02060194
KBTR 211153Z 00000KT 6SM BR FEW024 21/20 A3003 RMK AO2 SLP167 T02110200 10233 20200 53015
KBTR 211253Z 00000KT 6SM HZ CLR 24/21 A3004 RMK AO2 SLP171 T02390211



Page loaded:  13:14 UTC  |   06:14 AM Pacific  |   07:14 AM Mountain  |   08:14 AM Central  |   09:14 AM Eastern

 

ADVISORIES

FORECASTS

FORECASTS

OBSERVATIONS

USER TOOLS

ABOUT US